Time;durP1;ratioP1;P1;durP2;ratioP2;P2;SDS_P1;SDS_P2;PMS_P1;PMS_P2;Temp;Humidity;BMP_temperature;BMP_pressure;BME280_temperature;BME280_humidity;BME280_pressure;Samples;Min_cycle;Max_cycle;Signal;HPM_P1;HPM_P2
2021/03/31 00:00:22;;;;;;;41.20;21.73;;;;;;;;;;5050531;28;38100;-76
2021/03/31 00:02:50;;;;;;;40.30;21.20;;;;;;;;;;5068134;28;49128;-77
2021/03/31 00:05:16;;;;;;;40.97;20.83;;;;;;;;;;5053289;28;39597;-77
2021/03/31 00:07:43;;;;;;;42.97;20.57;;;;;;;;;;5057329;28;35909;-77
2021/03/31 00:10:20;;;;;;;37.43;20.37;;;;;;;;;;5060984;28;37457;-77
2021/03/31 00:12:46;;;;;;;47.13;22.40;;;;;;;;;;5063865;28;39787;-77
2021/03/31 00:15:13;;;;;;;41.83;21.97;;;;;;;;;;5061897;28;39110;-77
2021/03/31 00:17:39;;;;;;;44.27;23.03;;;;;;;;;;5048642;28;37247;-78
2021/03/31 00:20:06;;;;;;;41.80;21.87;;;;;;;;;;5056384;28;37601;-78
2021/03/31 00:22:33;;;;;;;40.60;21.80;;;;;;;;;;5057435;28;38582;-78
2021/03/31 00:24:59;;;;;;;40.67;21.13;;;;;;;;;;5087654;28;37320;-78
2021/03/31 00:27:25;;;;;;;43.57;20.77;;;;;;;;;;5045323;28;36095;-79
2021/03/31 00:29:52;;;;;;;42.37;20.00;;;;;;;;;;5062578;28;37810;-78
2021/03/31 01:24:35;;;;;;;40.70;21.23;;;;;;;;;;5056495;28;39960;-78
2021/03/31 01:27:04;;;;;;;38.10;20.60;;;;;;;;;;5057225;28;36183;-78
2021/03/31 01:29:37;;;;;;;39.60;19.67;;;;;;;;;;5044714;28;38011;-78
2021/03/31 01:32:16;;;;;;;43.63;21.25;;;;;;;;;;5062235;28;38164;-78
2021/03/31 01:34:43;;;;;;;38.90;19.77;;;;;;;;;;5058189;28;39699;-78
2021/03/31 01:37:36;;;;;;;44.23;20.63;;;;;;;;;;5057636;28;36929;-78
2021/03/31 01:40:04;;;;;;;42.92;20.42;;;;;;;;;;5044413;28;38540;-78
2021/03/31 01:42:32;;;;;;;38.60;21.00;;;;;;;;;;5041231;28;47291;-78
2021/03/31 01:45:00;;;;;;;41.60;20.50;;;;;;;;;;5053079;28;38667;-78
2021/03/31 01:47:28;;;;;;;40.63;20.27;;;;;;;;;;5038074;28;35874;-78
2021/03/31 01:49:54;;;;;;;36.87;19.70;;;;;;;;;;5061702;28;40041;-78
2021/03/31 01:52:21;;;;;;;44.97;21.80;;;;;;;;;;5049203;28;37972;-78
2021/03/31 01:54:48;;;;;;;38.67;20.30;;;;;;;;;;5052818;28;36314;-77
2021/03/31 01:57:15;;;;;;;42.03;21.73;;;;;;;;;;5050301;28;36503;-78
2021/03/31 01:59:45;;;;;;;45.33;22.40;;;;;;;;;;5053010;28;38083;-78
2021/03/31 02:02:12;;;;;;;41.50;21.23;;;;;;;;;;5059096;28;37369;-78
2021/03/31 02:04:39;;;;;;;38.57;20.03;;;;;;;;;;5051776;28;36281;-78
2021/03/31 02:07:09;;;;;;;42.40;21.27;;;;;;;;;;5043560;28;36319;-78
2021/03/31 02:09:37;;;;;;;42.57;20.87;;;;;;;;;;5064138;28;38978;-78
2021/03/31 02:12:04;;;;;;;42.67;22.10;;;;;;;;;;5059791;28;38882;-78
2021/03/31 02:14:31;;;;;;;39.57;21.03;;;;;;;;;;5069673;28;38972;-78
2021/03/31 02:16:58;;;;;;;42.53;21.40;;;;;;;;;;5047750;28;36082;-78
2021/03/31 02:19:24;;;;;;;41.97;21.33;;;;;;;;;;5063613;28;39148;-78
2021/03/31 02:21:51;;;;;;;40.87;20.30;;;;;;;;;;5058856;28;38727;-78
2021/03/31 02:24:18;;;;;;;44.17;21.27;;;;;;;;;;5056947;28;39689;-78
2021/03/31 02:26:45;;;;;;;45.57;21.70;;;;;;;;;;5056054;28;37218;-78
2021/03/31 02:29:12;;;;;;;43.73;22.73;;;;;;;;;;5054241;28;36876;-78
2021/03/31 02:31:39;;;;;;;43.10;20.53;;;;;;;;;;5043838;28;38860;-78
2021/03/31 02:34:06;;;;;;;41.43;22.00;;;;;;;;;;5052453;28;38376;-78
2021/03/31 02:36:33;;;;;;;43.70;21.47;;;;;;;;;;5051970;28;36255;-77
2021/03/31 02:39:00;;;;;;;43.47;21.57;;;;;;;;;;5059532;28;38558;-78
2021/03/31 02:41:26;;;;;;;43.30;21.47;;;;;;;;;;5045968;28;37960;-78
2021/03/31 02:43:53;;;;;;;47.33;23.60;;;;;;;;;;5073657;28;38732;-78
2021/03/31 02:46:21;;;;;;;44.90;21.93;;;;;;;;;;5059658;28;37675;-78
2021/03/31 02:48:48;;;;;;;44.60;23.23;;;;;;;;;;5063588;28;38551;-78
2021/03/31 02:51:15;;;;;;;46.87;23.90;;;;;;;;;;5036641;28;37918;-78
2021/03/31 02:53:42;;;;;;;41.13;20.57;;;;;;;;;;5043653;28;39836;-78
2021/03/31 02:56:09;;;;;;;43.97;22.83;;;;;;;;;;5056894;28;36853;-78
2021/03/31 02:58:39;;;;;;;45.73;22.00;;;;;;;;;;5064022;28;37787;-77
2021/03/31 03:01:07;;;;;;;47.63;24.87;;;;;;;;;;5041106;28;39268;-77
2021/03/31 03:03:34;;;;;;;50.83;24.40;;;;;;;;;;5038514;28;37450;-78
2021/03/31 03:06:01;;;;;;;45.93;23.60;;;;;;;;;;5057204;28;37399;-78
2021/03/31 03:08:27;;;;;;;41.57;21.57;;;;;;;;;;5058228;28;37544;-77
2021/03/31 03:10:57;;;;;;;47.07;23.07;;;;;;;;;;5056398;28;39169;-78
2021/03/31 03:13:23;;;;;;;48.40;23.40;;;;;;;;;;5084061;27;38434;-77
2021/03/31 03:15:49;;;;;;;49.20;24.57;;;;;;;;;;5054921;28;36323;-78
2021/03/31 03:18:16;;;;;;;42.73;20.77;;;;;;;;;;5045520;28;37940;-78
2021/03/31 03:20:42;;;;;;;46.83;24.07;;;;;;;;;;5052858;28;39965;-78
2021/03/31 03:23:09;;;;;;;49.40;22.93;;;;;;;;;;5063371;28;38527;-78
2021/03/31 03:25:36;;;;;;;49.57;23.70;;;;;;;;;;5060388;28;37222;-78
2021/03/31 03:28:04;;;;;;;43.90;22.53;;;;;;;;;;5054024;28;39226;-78
2021/03/31 03:30:30;;;;;;;44.80;23.23;;;;;;;;;;5053931;28;39735;-78
2021/03/31 03:32:57;;;;;;;47.77;23.50;;;;;;;;;;5047507;28;38706;-78
2021/03/31 03:35:26;;;;;;;44.40;22.93;;;;;;;;;;5044183;28;36753;-78
2021/03/31 03:37:53;;;;;;;45.47;24.43;;;;;;;;;;5060891;28;39165;-78
2021/03/31 03:40:22;;;;;;;48.63;23.90;;;;;;;;;;5047815;28;39287;-78
2021/03/31 03:42:48;;;;;;;45.70;24.23;;;;;;;;;;5042304;28;37616;-78
2021/03/31 03:45:15;;;;;;;49.90;25.30;;;;;;;;;;5047197;28;35899;-78
2021/03/31 03:47:43;;;;;;;48.43;24.20;;;;;;;;;;5062491;28;38222;-78
2021/03/31 03:50:13;;;;;;;47.93;24.60;;;;;;;;;;5052936;28;39694;-78
2021/03/31 03:52:40;;;;;;;53.93;25.00;;;;;;;;;;5053494;28;38358;-78
2021/03/31 03:55:07;;;;;;;50.20;26.43;;;;;;;;;;5063040;28;37693;-78
2021/03/31 03:57:33;;;;;;;44.73;24.33;;;;;;;;;;5061091;28;38805;-78
2021/03/31 04:00:00;;;;;;;55.73;26.37;;;;;;;;;;5064849;28;38996;-78
2021/03/31 04:02:26;;;;;;;49.53;24.63;;;;;;;;;;5066897;28;39378;-78
2021/03/31 04:04:52;;;;;;;54.07;26.23;;;;;;;;;;5050128;28;36220;-78
2021/03/31 04:07:19;;;;;;;49.40;24.53;;;;;;;;;;5056650;28;39491;-78
2021/03/31 04:09:47;;;;;;;50.50;25.53;;;;;;;;;;5062003;28;39966;-78
2021/03/31 04:12:14;;;;;;;57.27;25.13;;;;;;;;;;5063139;28;39413;-78
2021/03/31 04:14:41;;;;;;;48.67;26.20;;;;;;;;;;5046498;28;35757;-78
2021/03/31 04:17:09;;;;;;;50.37;25.70;;;;;;;;;;5062759;28;38979;-78
2021/03/31 04:19:36;;;;;;;54.03;26.03;;;;;;;;;;5049223;28;38972;-78
2021/03/31 04:22:03;;;;;;;50.97;25.87;;;;;;;;;;5062211;28;39710;-78
2021/03/31 04:24:29;;;;;;;47.97;24.50;;;;;;;;;;5079042;28;37539;-78
2021/03/31 04:26:56;;;;;;;50.57;25.53;;;;;;;;;;5052075;28;37834;-78
2021/03/31 04:29:23;;;;;;;47.70;25.03;;;;;;;;;;5059741;28;38944;-78
2021/03/31 04:31:49;;;;;;;52.90;25.60;;;;;;;;;;5036815;28;39117;-78
2021/03/31 04:34:16;;;;;;;54.07;27.50;;;;;;;;;;5048976;28;37201;-78
2021/03/31 04:36:43;;;;;;;56.10;26.57;;;;;;;;;;5059790;28;38570;-77
2021/03/31 04:39:09;;;;;;;52.77;25.83;;;;;;;;;;5064383;28;39840;-78
2021/03/31 04:41:36;;;;;;;56.20;26.73;;;;;;;;;;5063165;28;38729;-78
2021/03/31 04:44:02;;;;;;;51.07;26.13;;;;;;;;;;5073167;27;36206;-77
2021/03/31 04:46:29;;;;;;;54.53;27.60;;;;;;;;;;5038827;28;38990;-78
2021/03/31 04:48:55;;;;;;;51.73;26.53;;;;;;;;;;5060508;28;39018;-78
2021/03/31 04:51:23;;;;;;;51.40;27.17;;;;;;;;;;5054123;28;37639;-78
2021/03/31 04:53:49;;;;;;;51.47;27.10;;;;;;;;;;5044911;28;37730;-78
2021/03/31 04:56:15;;;;;;;46.73;24.47;;;;;;;;;;5059969;28;39178;-78
2021/03/31 04:58:42;;;;;;;45.57;25.30;;;;;;;;;;5079970;27;37743;-78
2021/03/31 05:01:08;;;;;;;49.27;24.43;;;;;;;;;;5057554;28;39063;-78
2021/03/31 05:03:35;;;;;;;56.40;27.07;;;;;;;;;;5056874;28;37638;-78
2021/03/31 05:06:01;;;;;;;51.37;27.27;;;;;;;;;;5034130;28;37356;-78
2021/03/31 05:08:27;;;;;;;47.80;24.10;;;;;;;;;;5046859;28;39228;-78
2021/03/31 05:10:54;;;;;;;52.83;26.30;;;;;;;;;;5060501;28;39735;-78
2021/03/31 05:13:20;;;;;;;60.73;29.87;;;;;;;;;;5057237;28;37165;-78
2021/03/31 05:15:46;;;;;;;54.53;27.67;;;;;;;;;;5053608;28;39021;-79
2021/03/31 05:18:13;;;;;;;54.83;27.67;;;;;;;;;;5042578;28;37830;-78
2021/03/31 05:20:39;;;;;;;53.77;27.03;;;;;;;;;;5043041;28;37211;-77
2021/03/31 05:23:05;;;;;;;61.77;29.13;;;;;;;;;;5074097;28;35941;-77
2021/03/31 05:25:32;;;;;;;64.40;30.10;;;;;;;;;;5043879;28;39889;-77
2021/03/31 05:27:58;;;;;;;57.37;30.07;;;;;;;;;;5055384;28;37600;-77
2021/03/31 05:30:25;;;;;;;66.67;31.37;;;;;;;;;;5043274;28;38140;-78
2021/03/31 05:32:51;;;;;;;58.27;29.83;;;;;;;;;;5058602;28;35773;-77
2021/03/31 05:35:18;;;;;;;57.50;30.50;;;;;;;;;;5046634;28;37912;-77
2021/03/31 05:37:45;;;;;;;70.93;32.17;;;;;;;;;;5065451;28;40031;-77
2021/03/31 05:40:11;;;;;;;68.17;33.57;;;;;;;;;;5066565;28;39076;-77
2021/03/31 05:42:38;;;;;;;64.80;31.53;;;;;;;;;;5062169;28;36248;-79
2021/03/31 05:45:09;;;;;;;64.67;32.37;;;;;;;;;;5052956;28;38608;-77
2021/03/31 05:47:37;;;;;;;59.70;30.83;;;;;;;;;;5062783;28;39153;-77
2021/03/31 05:50:05;;;;;;;64.73;31.13;;;;;;;;;;5045871;28;37568;-77
2021/03/31 05:52:31;;;;;;;65.00;32.37;;;;;;;;;;5043745;28;35768;-77
2021/03/31 05:55:01;;;;;;;62.80;31.40;;;;;;;;;;5067395;28;38513;-76
2021/03/31 05:57:27;;;;;;;56.93;31.03;;;;;;;;;;5040295;28;37516;-76
2021/03/31 05:59:54;;;;;;;61.70;30.87;;;;;;;;;;5061273;28;39157;-77
2021/03/31 06:02:20;;;;;;;64.17;32.40;;;;;;;;;;5056768;28;37022;-76
2021/03/31 06:04:47;;;;;;;61.50;31.07;;;;;;;;;;5043190;28;38293;-78
2021/03/31 06:07:13;;;;;;;53.13;27.40;;;;;;;;;;5041468;28;37672;-78
2021/03/31 06:09:58;;;;;;;63.40;32.80;;;;;;;;;;5057557;28;40894;-78
2021/03/31 06:12:28;;;;;;;68.23;31.23;;;;;;;;;;5055456;28;36717;-78
2021/03/31 06:14:55;;;;;;;61.17;32.07;;;;;;;;;;5042998;28;37277;-78
2021/03/31 06:17:21;;;;;;;60.93;32.07;;;;;;;;;;5046313;28;39603;-78
2021/03/31 06:19:48;;;;;;;81.67;39.87;;;;;;;;;;5045139;28;37964;-77
2021/03/31 06:25:23;;;;;;;65.43;34.07;;;;;;;;;;5057189;28;39849;-78
2021/03/31 06:27:53;;;;;;;71.57;33.13;;;;;;;;;;5052824;28;49797;-77
2021/03/31 06:30:28;;;;;;;59.03;31.27;;;;;;;;;;5046667;28;37226;-80
2021/03/31 06:32:56;;;;;;;61.93;31.27;;;;;;;;;;5060239;28;37027;-78
2021/03/31 06:35:26;;;;;;;64.00;32.10;;;;;;;;;;5058539;28;39836;-78
2021/03/31 06:38:03;;;;;;;61.77;31.13;;;;;;;;;;5070641;28;39140;-77
2021/03/31 06:40:35;;;;;;;64.33;32.80;;;;;;;;;;5064455;28;48829;-78
2021/03/31 06:43:11;;;;;;;59.05;31.00;;;;;;;;;;5050917;28;37431;-78
2021/03/31 06:45:45;;;;;;;51.87;29.83;;;;;;;;;;5069538;28;49322;-78
2021/03/31 06:48:12;;;;;;;53.20;30.40;;;;;;;;;;5063139;28;39836;-78
2021/03/31 06:50:38;;;;;;;65.17;31.80;;;;;;;;;;5049841;28;37648;-77
2021/03/31 06:53:05;;;;;;;56.53;30.23;;;;;;;;;;5061614;28;37273;-78
2021/03/31 06:55:32;;;;;;;51.47;31.00;;;;;;;;;;5077772;28;39475;-78
2021/03/31 06:58:00;;;;;;;61.80;30.83;;;;;;;;;;5062784;28;39244;-77
2021/03/31 07:00:30;;;;;;;57.13;31.13;;;;;;;;;;5062133;28;39301;-78
2021/03/31 07:03:01;;;;;;;54.57;30.20;;;;;;;;;;5063300;28;37037;-78
2021/03/31 07:05:29;;;;;;;56.73;31.13;;;;;;;;;;5077750;28;47241;-78
2021/03/31 07:08:22;;;;;;;54.67;30.20;;;;;;;;;;5060271;28;39011;-78
2021/03/31 07:10:50;;;;;;;50.63;31.92;;;;;;;;;;5056900;28;48589;-77
2021/03/31 07:13:38;;;;;;;50.63;27.87;;;;;;;;;;5042077;28;38408;-77
2021/03/31 07:16:05;;;;;;;48.63;27.73;;;;;;;;;;5077156;28;38582;-77
2021/03/31 07:18:33;;;;;;;48.87;28.17;;;;;;;;;;5063961;28;39797;-78
2021/03/31 07:21:00;;;;;;;55.07;28.43;;;;;;;;;;5064202;28;39476;-78
2021/03/31 07:23:27;;;;;;;51.73;27.47;;;;;;;;;;5046045;28;36029;-78
2021/03/31 07:25:54;;;;;;;48.27;28.50;;;;;;;;;;5065053;28;39500;-77
2021/03/31 07:28:23;;;;;;;48.47;26.53;;;;;;;;;;5060613;28;38929;-78
2021/03/31 07:30:50;;;;;;;43.53;27.63;;;;;;;;;;5046287;28;38024;-78
2021/03/31 07:33:18;;;;;;;42.28;25.92;;;;;;;;;;5046869;28;36299;-77
2021/03/31 07:35:45;;;;;;;43.83;27.48;;;;;;;;;;5046799;28;37763;-78
2021/03/31 07:38:16;;;;;;;49.50;27.63;;;;;;;;;;5045328;28;37953;-76
2021/03/31 07:40:43;;;;;;;53.45;26.30;;;;;;;;;;5044725;28;37463;-77
2021/03/31 07:43:13;;;;;;;46.67;25.95;;;;;;;;;;5059650;28;38242;-76
2021/03/31 07:45:50;;;;;;;46.78;25.52;;;;;;;;;;5060979;28;37660;-77
2021/03/31 07:48:17;;;;;;;45.05;25.63;;;;;;;;;;5075860;28;39066;-78
2021/03/31 07:50:44;;;;;;;45.90;26.13;;;;;;;;;;5046508;28;37407;-78
2021/03/31 07:53:13;;;;;;;39.17;25.20;;;;;;;;;;5063948;28;37387;-78
2021/03/31 07:55:47;;;;;;;42.38;25.02;;;;;;;;;;5040926;28;38086;-78
2021/03/31 07:58:16;;;;;;;46.58;25.00;;;;;;;;;;5042574;28;38133;-78
2021/03/31 08:01:02;;;;;;;41.28;26.30;;;;;;;;;;5037320;28;38459;-79
2021/03/31 08:03:29;;;;;;;41.28;24.70;;;;;;;;;;5044469;28;47675;-79
2021/03/31 08:06:03;;;;;;;42.67;25.92;;;;;;;;;;5046648;28;39057;-79
2021/03/31 08:08:30;;;;;;;41.65;25.85;;;;;;;;;;5062955;28;49288;-79
2021/03/31 08:10:57;;;;;;;40.55;24.92;;;;;;;;;;5048207;28;38373;-79
2021/03/31 08:13:30;;;;;;;41.65;25.00;;;;;;;;;;5045170;28;36529;-79
2021/03/31 08:15:57;;;;;;;43.47;25.80;;;;;;;;;;5064910;28;38940;-79
2021/03/31 08:18:24;;;;;;;37.50;25.55;;;;;;;;;;5047719;28;38956;-79
2021/03/31 08:20:50;;;;;;;40.70;26.27;;;;;;;;;;5047653;28;37463;-79
2021/03/31 08:23:35;;;;;;;41.08;25.58;;;;;;;;;;5076774;28;35518;-79
2021/03/31 08:26:21;;;;;;;40.97;24.95;;;;;;;;;;5058644;28;39095;-79
2021/03/31 08:28:47;;;;;;;45.53;27.42;;;;;;;;;;5041829;28;47184;-79
2021/03/31 08:31:21;;;;;;;44.72;26.58;;;;;;;;;;5041750;28;38117;-79
2021/03/31 08:33:48;;;;;;;41.92;25.25;;;;;;;;;;5040012;28;36318;-79
2021/03/31 08:36:15;;;;;;;46.47;26.05;;;;;;;;;;5039817;28;38350;-79
2021/03/31 08:38:41;;;;;;;42.38;25.27;;;;;;;;;;5041368;28;38720;-79
2021/03/31 08:41:21;;;;;;;38.47;24.88;;;;;;;;;;5039127;28;37626;-79
2021/03/31 08:43:48;;;;;;;41.63;27.30;;;;;;;;;;5056199;28;36919;-81
2021/03/31 08:46:27;;;;;;;44.63;27.05;;;;;;;;;;5043651;28;37998;-80
2021/03/31 08:48:53;;;;;;;45.83;27.05;;;;;;;;;;5046117;28;38171;-80
2021/03/31 08:51:20;;;;;;;42.13;27.42;;;;;;;;;;5038739;28;39426;-80
2021/03/31 08:53:47;;;;;;;49.53;26.75;;;;;;;;;;5044450;28;36163;-80
2021/03/31 08:56:17;;;;;;;50.60;27.58;;;;;;;;;;5039234;28;38763;-79
2021/03/31 08:58:44;;;;;;;45.08;27.25;;;;;;;;;;5043809;28;38939;-80
2021/03/31 09:01:10;;;;;;;39.40;26.02;;;;;;;;;;5040408;28;37489;-77
2021/03/31 09:03:37;;;;;;;42.78;27.02;;;;;;;;;;5034264;28;36600;-79
2021/03/31 09:06:03;;;;;;;44.13;27.90;;;;;;;;;;5042404;28;38070;-79
2021/03/31 09:08:30;;;;;;;46.42;27.80;;;;;;;;;;5040946;28;39085;-80
2021/03/31 09:10:58;;;;;;;47.97;27.23;;;;;;;;;;5041395;28;39705;-77
2021/03/31 09:13:28;;;;;;;40.72;26.58;;;;;;;;;;5043725;28;36352;-78
2021/03/31 09:15:56;;;;;;;43.63;26.55;;;;;;;;;;5038342;28;40168;-78
2021/03/31 09:18:22;;;;;;;43.00;28.75;;;;;;;;;;5053497;28;38225;-80
2021/03/31 09:20:49;;;;;;;37.17;26.67;;;;;;;;;;5042629;28;38857;-78
2021/03/31 09:23:19;;;;;;;38.78;27.25;;;;;;;;;;5043397;28;35813;-79
2021/03/31 09:25:53;;;;;;;37.92;26.13;;;;;;;;;;5038676;28;37932;-79
2021/03/31 09:28:19;;;;;;;39.47;28.17;;;;;;;;;;5053856;28;37766;-80
2021/03/31 09:30:46;;;;;;;42.45;27.60;;;;;;;;;;5051090;28;37782;-79
2021/03/31 09:33:15;;;;;;;38.25;26.30;;;;;;;;;;5038858;28;37182;-79
2021/03/31 09:35:41;;;;;;;35.90;26.55;;;;;;;;;;5057133;28;37884;-80
2021/03/31 09:38:08;;;;;;;38.72;27.25;;;;;;;;;;5038749;28;39429;-77
2021/03/31 09:40:36;;;;;;;40.30;27.10;;;;;;;;;;5042500;28;39400;-76
2021/03/31 09:43:03;;;;;;;40.90;28.55;;;;;;;;;;5040633;28;37103;-75
2021/03/31 09:45:31;;;;;;;43.17;27.27;;;;;;;;;;5040343;28;38758;-75
2021/03/31 09:47:58;;;;;;;48.97;29.33;;;;;;;;;;5041386;28;39945;-75
2021/03/31 09:50:24;;;;;;;43.60;28.70;;;;;;;;;;5036365;28;37424;-75
2021/03/31 09:53:01;;;;;;;38.08;27.67;;;;;;;;;;5035085;28;37535;-80
2021/03/31 09:55:28;;;;;;;41.28;27.00;;;;;;;;;;5040642;28;47140;-76
2021/03/31 09:57:55;;;;;;;44.70;27.52;;;;;;;;;;5037291;28;39756;-75
2021/03/31 10:00:23;;;;;;;43.15;29.15;;;;;;;;;;5036984;28;38795;-75
2021/03/31 10:02:50;;;;;;;46.78;30.50;;;;;;;;;;5037580;28;37299;-75
2021/03/31 10:05:24;;;;;;;47.35;31.00;;;;;;;;;;5052372;28;39541;-75
2021/03/31 10:07:54;;;;;;;43.92;28.58;;;;;;;;;;5038970;28;39296;-74
2021/03/31 10:10:37;;;;;;;45.30;30.70;;;;;;;;;;5037069;28;38312;-75
2021/03/31 10:13:04;;;;;;;44.13;28.58;;;;;;;;;;5037785;28;37920;-76
2021/03/31 10:15:30;;;;;;;47.45;29.27;;;;;;;;;;5043293;28;38996;-76
2021/03/31 10:17:56;;;;;;;47.47;29.83;;;;;;;;;;5043253;28;37710;-76
2021/03/31 10:20:23;;;;;;;57.22;31.88;;;;;;;;;;5036656;28;37213;-76
2021/03/31 10:22:53;;;;;;;51.58;30.33;;;;;;;;;;5055427;28;36818;-76
2021/03/31 10:25:26;;;;;;;47.53;31.65;;;;;;;;;;5056717;28;38339;-76
2021/03/31 10:27:53;;;;;;;50.33;31.98;;;;;;;;;;5043542;28;38190;-75
2021/03/31 10:30:25;;;;;;;44.97;30.23;;;;;;;;;;5043790;28;38102;-76
2021/03/31 10:32:52;;;;;;;53.33;30.92;;;;;;;;;;5042798;28;37319;-76
2021/03/31 10:35:18;;;;;;;54.50;33.25;;;;;;;;;;5040845;28;39512;-76
2021/03/31 10:38:04;;;;;;;50.92;33.60;;;;;;;;;;5036076;28;39889;-77
2021/03/31 10:41:05;;;;;;;55.78;34.33;;;;;;;;;;5040517;28;49477;-77
2021/03/31 10:51:58;;;;;;;55.08;34.35;;;;;;;;;;5039122;28;49094;-77
2021/03/31 10:54:26;;;;;;;54.28;33.10;;;;;;;;;;5040313;28;37293;-76
2021/03/31 10:56:54;;;;;;;50.72;33.05;;;;;;;;;;5044972;28;39289;-77
2021/03/31 10:59:20;;;;;;;53.22;32.45;;;;;;;;;;5056703;28;38304;-77
2021/03/31 11:01:47;;;;;;;49.67;32.22;;;;;;;;;;5041071;28;37570;-76
2021/03/31 11:04:13;;;;;;;49.70;31.25;;;;;;;;;;5041961;28;35751;-78
2021/03/31 11:06:40;;;;;;;42.15;25.58;;;;;;;;;;5053395;28;38028;-78
2021/03/31 11:09:06;;;;;;;46.50;29.35;;;;;;;;;;5040639;28;37970;-79
2021/03/31 11:11:33;;;;;;;45.70;30.08;;;;;;;;;;5050241;28;37607;-77
2021/03/31 11:13:59;;;;;;;48.83;29.30;;;;;;;;;;5036770;28;37695;-78
2021/03/31 11:16:26;;;;;;;48.50;28.38;;;;;;;;;;5038559;28;38362;-78
2021/03/31 11:19:10;;;;;;;43.83;27.35;;;;;;;;;;5043288;28;38948;-77
2021/03/31 11:27:03;;;;;;;32.22;19.58;;;;;;;;;;5017616;28;40607;-77
2021/03/31 11:29:30;;;;;;;33.55;21.13;;;;;;;;;;5031205;28;37808;-77
2021/03/31 11:31:56;;;;;;;43.97;27.17;;;;;;;;;;5015106;28;38300;-78
2021/03/31 11:34:22;;;;;;;44.60;29.20;;;;;;;;;;5014519;28;36343;-80
2021/03/31 11:36:50;;;;;;;29.60;19.70;;;;;;;;;;5016519;28;39837;-78
2021/03/31 11:39:18;;;;;;;32.05;20.23;;;;;;;;;;5037095;28;39374;-78
2021/03/31 11:41:45;;;;;;;37.28;25.00;;;;;;;;;;5021457;28;37325;-78
2021/03/31 11:44:11;;;;;;;34.90;21.65;;;;;;;;;;5021639;28;37834;-78
2021/03/31 11:46:37;;;;;;;32.90;21.23;;;;;;;;;;5036662;28;38986;-78
2021/03/31 11:49:04;;;;;;;27.25;16.95;;;;;;;;;;5022667;28;38701;-78
2021/03/31 11:51:31;;;;;;;30.88;18.63;;;;;;;;;;5019563;28;39434;-78
2021/03/31 11:53:57;;;;;;;32.88;20.65;;;;;;;;;;5021815;28;36075;-77
2021/03/31 11:56:23;;;;;;;31.95;19.17;;;;;;;;;;5040011;28;40677;-78
2021/03/31 11:58:50;;;;;;;26.65;16.55;;;;;;;;;;5023480;28;37928;-77
2021/03/31 12:01:16;;;;;;;32.22;19.35;;;;;;;;;;5025404;28;37871;-78
2021/03/31 12:03:43;;;;;;;31.42;17.45;;;;;;;;;;5015094;28;36356;-78
2021/03/31 12:06:09;;;;;;;30.65;19.67;;;;;;;;;;5010876;28;39281;-78
2021/03/31 12:08:35;;;;;;;30.75;18.48;;;;;;;;;;5023301;28;38768;-78
2021/03/31 12:11:02;;;;;;;30.52;17.73;;;;;;;;;;5022460;28;38051;-78
2021/03/31 12:13:28;;;;;;;30.75;18.90;;;;;;;;;;5033354;28;36838;-78
2021/03/31 12:15:55;;;;;;;33.08;21.10;;;;;;;;;;5018541;28;37690;-78
2021/03/31 12:18:21;;;;;;;29.35;18.88;;;;;;;;;;5036415;28;39899;-78
2021/03/31 12:20:47;;;;;;;32.55;19.92;;;;;;;;;;5020240;28;37398;-78
2021/03/31 12:23:14;;;;;;;28.50;17.85;;;;;;;;;;5015391;28;38394;-78
2021/03/31 12:25:43;;;;;;;26.55;15.82;;;;;;;;;;5034546;28;40046;-78
2021/03/31 12:28:10;;;;;;;28.90;15.98;;;;;;;;;;5073282;28;39918;-77
2021/03/31 12:30:37;;;;;;;26.02;16.60;;;;;;;;;;5044041;28;38198;-78
2021/03/31 12:33:03;;;;;;;28.17;17.02;;;;;;;;;;5043572;28;36089;-77
2021/03/31 12:35:29;;;;;;;23.55;14.35;;;;;;;;;;5060800;28;39779;-78
2021/03/31 12:37:56;;;;;;;20.63;13.45;;;;;;;;;;5060463;28;39216;-77
2021/03/31 12:40:22;;;;;;;24.75;14.40;;;;;;;;;;5055156;28;39644;-78
2021/03/31 12:42:49;;;;;;;24.33;14.85;;;;;;;;;;5060517;28;37903;-77
2021/03/31 12:45:15;;;;;;;24.15;14.52;;;;;;;;;;5043791;28;37607;-78
2021/03/31 12:47:42;;;;;;;25.55;15.63;;;;;;;;;;5064264;28;38989;-76
2021/03/31 12:50:10;;;;;;;21.50;13.63;;;;;;;;;;5062802;28;39675;-76
2021/03/31 12:52:51;;;;;;;20.45;12.93;;;;;;;;;;5042953;28;36140;-76
2021/03/31 12:55:21;;;;;;;17.60;11.75;;;;;;;;;;5044642;28;38119;-77
2021/03/31 12:57:49;;;;;;;18.00;12.10;;;;;;;;;;5060485;28;37944;-77
2021/03/31 13:00:17;;;;;;;19.20;12.57;;;;;;;;;;5061664;28;39804;-76
2021/03/31 13:02:43;;;;;;;22.00;12.73;;;;;;;;;;5060293;28;35975;-77
2021/03/31 13:05:10;;;;;;;25.17;15.50;;;;;;;;;;5059266;28;37980;-76
2021/03/31 13:07:37;;;;;;;24.77;15.65;;;;;;;;;;5062610;28;39090;-77
2021/03/31 13:10:05;;;;;;;24.42;14.73;;;;;;;;;;5045301;28;38834;-76
2021/03/31 13:12:52;;;;;;;22.35;14.27;;;;;;;;;;5063856;28;37941;-76
2021/03/31 13:15:31;;;;;;;23.02;14.52;;;;;;;;;;5037181;28;39466;-77
2021/03/31 13:23:29;;;;;;;22.48;14.45;;;;;;;;;;5054617;28;37651;-77
2021/03/31 13:25:59;;;;;;;20.45;12.20;;;;;;;;;;5056375;28;39743;-76
2021/03/31 13:34:10;;;;;;;22.33;14.82;;;;;;;;;;5062606;28;37843;-76
2021/03/31 13:36:56;;;;;;;25.00;13.93;;;;;;;;;;5042477;28;47398;-80
2021/03/31 13:39:31;;;;;;;20.05;12.25;;;;;;;;;;5057331;28;39153;-79
2021/03/31 13:41:57;;;;;;;20.92;13.13;;;;;;;;;;5041096;28;37523;-79
2021/03/31 13:44:27;;;;;;;20.85;13.48;;;;;;;;;;5056786;28;36010;-79
2021/03/31 13:47:02;;;;;;;18.40;11.40;;;;;;;;;;5043506;28;38061;-79
2021/03/31 13:49:34;;;;;;;16.52;11.35;;;;;;;;;;5055985;28;49394;-79
2021/03/31 13:52:10;;;;;;;17.13;11.38;;;;;;;;;;5042692;28;41066;-79
2021/03/31 13:54:45;;;;;;;17.30;10.48;;;;;;;;;;5042512;28;48218;-79
2021/03/31 13:57:15;;;;;;;14.38;9.93;;;;;;;;;;5065669;28;39182;-79
2021/03/31 13:59:41;;;;;;;17.35;10.40;;;;;;;;;;5059380;28;39730;-79
2021/03/31 14:02:08;;;;;;;15.98;11.38;;;;;;;;;;5061081;28;40106;-79
2021/03/31 14:04:34;;;;;;;15.45;11.48;;;;;;;;;;5055614;28;37546;-79
2021/03/31 14:07:00;;;;;;;15.27;10.57;;;;;;;;;;5073272;28;38968;-77
2021/03/31 14:09:27;;;;;;;20.25;11.10;;;;;;;;;;5060450;28;46489;-78
2021/03/31 14:11:53;;;;;;;17.60;12.30;;;;;;;;;;5060297;28;37661;-77
2021/03/31 14:14:20;;;;;;;21.27;12.60;;;;;;;;;;5061596;28;38037;-78
2021/03/31 14:19:22;;;;;;;18.63;11.27;;;;;;;;;;5058671;28;39482;-77
2021/03/31 14:21:48;;;;;;;21.20;11.77;;;;;;;;;;5040255;28;39741;-78
2021/03/31 14:24:15;;;;;;;17.35;11.05;;;;;;;;;;5062691;28;38330;-78
2021/03/31 14:26:41;;;;;;;19.95;12.35;;;;;;;;;;5056827;28;39454;-77
2021/03/31 14:29:07;;;;;;;19.92;12.38;;;;;;;;;;5062382;28;39819;-77
2021/03/31 14:31:34;;;;;;;21.65;14.65;;;;;;;;;;5041578;28;38890;-78
2021/03/31 14:34:01;;;;;;;24.13;14.85;;;;;;;;;;5074698;27;37666;-77
2021/03/31 14:36:27;;;;;;;22.33;13.27;;;;;;;;;;5074143;28;46618;-78
2021/03/31 14:38:54;;;;;;;17.85;12.80;;;;;;;;;;5055726;28;39653;-78
2021/03/31 14:41:20;;;;;;;19.77;12.68;;;;;;;;;;5059559;28;38854;-77
2021/03/31 14:43:47;;;;;;;20.27;12.40;;;;;;;;;;5053355;28;37142;-77
2021/03/31 14:46:13;;;;;;;18.25;12.43;;;;;;;;;;5060102;28;39723;-77
2021/03/31 14:48:40;;;;;;;22.05;13.50;;;;;;;;;;5043972;28;38642;-77
2021/03/31 14:51:06;;;;;;;18.27;13.05;;;;;;;;;;5057556;28;38585;-76
2021/03/31 15:01:35;;;;;;;25.27;15.27;;;;;;;;;;5062807;28;49246;-78
2021/03/31 15:04:02;;;;;;;22.02;15.50;;;;;;;;;;5064891;28;37391;-77
2021/03/31 15:06:28;;;;;;;22.88;14.70;;;;;;;;;;5059510;28;37493;-78
2021/03/31 15:08:55;;;;;;;31.27;15.20;;;;;;;;;;5065611;28;38753;-77
2021/03/31 15:11:21;;;;;;;21.20;13.52;;;;;;;;;;5056783;28;39739;-78
2021/03/31 15:13:48;;;;;;;22.63;13.60;;;;;;;;;;5040100;28;36468;-79
2021/03/31 15:16:14;;;;;;;22.67;13.52;;;;;;;;;;5061337;28;39179;-78
2021/03/31 15:18:41;;;;;;;20.05;13.77;;;;;;;;;;5064233;28;39409;-79
2021/03/31 15:21:24;;;;;;;18.50;12.43;;;;;;;;;;5044611;28;37603;-78
2021/03/31 15:23:51;;;;;;;16.90;11.25;;;;;;;;;;5046167;28;37740;-79
2021/03/31 15:26:17;;;;;;;19.20;10.82;;;;;;;;;;5044284;28;37979;-78
2021/03/31 15:28:44;;;;;;;17.90;11.27;;;;;;;;;;5056365;28;37746;-79
2021/03/31 15:31:10;;;;;;;19.80;12.10;;;;;;;;;;5058384;28;37762;-78
2021/03/31 15:33:38;;;;;;;17.20;12.18;;;;;;;;;;5060843;28;37431;-78
2021/03/31 15:36:05;;;;;;;18.17;11.18;;;;;;;;;;5061972;28;37842;-78
2021/03/31 15:38:32;;;;;;;14.68;10.23;;;;;;;;;;5060377;28;38791;-77
2021/03/31 15:40:58;;;;;;;18.17;11.18;;;;;;;;;;5046631;28;38478;-77
2021/03/31 15:43:25;;;;;;;17.83;10.80;;;;;;;;;;5041882;28;37138;-77
2021/03/31 15:45:53;;;;;;;18.80;11.18;;;;;;;;;;5060729;28;38469;-77
2021/03/31 15:48:20;;;;;;;17.33;11.23;;;;;;;;;;5057899;28;38804;-78
2021/03/31 15:50:47;;;;;;;16.80;11.63;;;;;;;;;;5059821;28;38527;-77
2021/03/31 15:53:13;;;;;;;19.27;11.88;;;;;;;;;;5060913;28;37410;-77